sensor_id;sensor_type;location;lat;lon;timestamp;temperature;humidity
47310;DHT22;33046;52.270;6.832;2023-11-19T00:00:00;11.00;99.90
47310;DHT22;33046;52.270;6.832;2023-11-19T00:02:07;11.00;99.90
47310;DHT22;33046;52.270;6.832;2023-11-19T00:04:14;11.00;99.90
47310;DHT22;33046;52.270;6.832;2023-11-19T00:06:21;11.00;99.90
47310;DHT22;33046;52.270;6.832;2023-11-19T00:08:28;11.00;99.90
47310;DHT22;33046;52.270;6.832;2023-11-19T00:10:35;11.00;99.90
47310;DHT22;33046;52.270;6.832;2023-11-19T00:12:42;11.00;99.90
47310;DHT22;33046;52.270;6.832;2023-11-19T00:14:50;11.10;99.90
47310;DHT22;33046;52.270;6.832;2023-11-19T00:16:58;11.10;99.90
47310;DHT22;33046;52.270;6.832;2023-11-19T00:19:05;11.10;99.90
47310;DHT22;33046;52.270;6.832;2023-11-19T00:21:11;11.10;99.90
47310;DHT22;33046;52.270;6.832;2023-11-19T00:23:18;11.10;99.90
47310;DHT22;33046;52.270;6.832;2023-11-19T00:25:25;11.10;99.90
47310;DHT22;33046;52.270;6.832;2023-11-19T00:27:32;11.20;99.90
47310;DHT22;33046;52.270;6.832;2023-11-19T00:29:39;11.20;99.90
47310;DHT22;33046;52.270;6.832;2023-11-19T00:31:46;11.20;99.90
47310;DHT22;33046;52.270;6.832;2023-11-19T00:33:54;11.20;99.90
47310;DHT22;33046;52.270;6.832;2023-11-19T00:36:01;11.20;99.90
47310;DHT22;33046;52.270;6.832;2023-11-19T00:38:08;11.30;99.90
47310;DHT22;33046;52.270;6.832;2023-11-19T00:40:15;11.30;99.90
47310;DHT22;33046;52.270;6.832;2023-11-19T00:42:23;11.30;99.90
47310;DHT22;33046;52.270;6.832;2023-11-19T00:44:29;11.30;99.90
47310;DHT22;33046;52.270;6.832;2023-11-19T00:46:36;11.40;99.90
47310;DHT22;33046;52.270;6.832;2023-11-19T00:48:43;11.40;99.90
47310;DHT22;33046;52.270;6.832;2023-11-19T00:50:51;11.40;99.90
47310;DHT22;33046;52.270;6.832;2023-11-19T00:52:58;11.40;99.90
47310;DHT22;33046;52.270;6.832;2023-11-19T00:55:06;11.50;99.90
47310;DHT22;33046;52.270;6.832;2023-11-19T00:57:13;11.50;99.90
47310;DHT22;33046;52.270;6.832;2023-11-19T00:59:20;11.50;99.90
47310;DHT22;33046;52.270;6.832;2023-11-19T01:01:27;11.50;99.90
47310;DHT22;33046;52.270;6.832;2023-11-19T01:03:34;11.50;99.90
47310;DHT22;33046;52.270;6.832;2023-11-19T01:05:41;11.60;99.90
47310;DHT22;33046;52.270;6.832;2023-11-19T01:07:49;11.60;99.90
47310;DHT22;33046;52.270;6.832;2023-11-19T01:09:56;11.60;99.90
47310;DHT22;33046;52.270;6.832;2023-11-19T01:12:04;11.60;99.90
47310;DHT22;33046;52.270;6.832;2023-11-19T01:14:11;11.70;99.90
47310;DHT22;33046;52.270;6.832;2023-11-19T01:16:19;11.70;99.90
47310;DHT22;33046;52.270;6.832;2023-11-19T01:18:26;11.70;99.90
47310;DHT22;33046;52.270;6.832;2023-11-19T01:20:33;11.70;99.90
47310;DHT22;33046;52.270;6.832;2023-11-19T01:22:40;11.70;99.90
47310;DHT22;33046;52.270;6.832;2023-11-19T01:24:49;11.80;99.90
47310;DHT22;33046;52.270;6.832;2023-11-19T01:26:55;11.80;99.90
47310;DHT22;33046;52.270;6.832;2023-11-19T01:29:02;11.80;99.90
47310;DHT22;33046;52.270;6.832;2023-11-19T01:31:09;11.80;99.90
47310;DHT22;33046;52.270;6.832;2023-11-19T01:33:16;11.80;99.90
47310;DHT22;33046;52.270;6.832;2023-11-19T01:35:23;11.80;99.90
47310;DHT22;33046;52.270;6.832;2023-11-19T01:37:31;11.80;99.90
47310;DHT22;33046;52.270;6.832;2023-11-19T01:39:38;11.90;99.90
47310;DHT22;33046;52.270;6.832;2023-11-19T01:41:46;11.90;99.90
47310;DHT22;33046;52.270;6.832;2023-11-19T01:43:53;11.90;99.90
47310;DHT22;33046;52.270;6.832;2023-11-19T01:46:00;11.90;99.90
47310;DHT22;33046;52.270;6.832;2023-11-19T01:48:07;11.90;99.90
47310;DHT22;33046;52.270;6.832;2023-11-19T01:50:15;11.90;99.90
47310;DHT22;33046;52.270;6.832;2023-11-19T01:52:22;11.90;99.90
47310;DHT22;33046;52.270;6.832;2023-11-19T01:54:29;12.00;99.90
47310;DHT22;33046;52.270;6.832;2023-11-19T01:56:37;12.00;99.90
47310;DHT22;33046;52.270;6.832;2023-11-19T01:58:48;12.00;99.90
47310;DHT22;33046;52.270;6.832;2023-11-19T02:00:55;12.00;99.90
47310;DHT22;33046;52.270;6.832;2023-11-19T02:03:03;12.10;99.90
47310;DHT22;33046;52.270;6.832;2023-11-19T02:05:11;12.10;99.90
47310;DHT22;33046;52.270;6.832;2023-11-19T02:07:18;12.10;99.90
47310;DHT22;33046;52.270;6.832;2023-11-19T02:09:25;12.10;99.90
47310;DHT22;33046;52.270;6.832;2023-11-19T02:11:33;12.10;99.90
47310;DHT22;33046;52.270;6.832;2023-11-19T02:13:39;12.10;99.90
47310;DHT22;33046;52.270;6.832;2023-11-19T02:15:48;12.10;99.90
47310;DHT22;33046;52.270;6.832;2023-11-19T02:17:55;12.10;99.90
47310;DHT22;33046;52.270;6.832;2023-11-19T02:20:02;12.20;99.90
47310;DHT22;33046;52.270;6.832;2023-11-19T02:22:09;12.20;99.90
47310;DHT22;33046;52.270;6.832;2023-11-19T02:24:21;12.20;99.90
47310;DHT22;33046;52.270;6.832;2023-11-19T02:26:32;12.20;99.90
47310;DHT22;33046;52.270;6.832;2023-11-19T02:28:41;12.20;99.90
47310;DHT22;33046;52.270;6.832;2023-11-19T02:30:48;12.20;99.90
47310;DHT22;33046;52.270;6.832;2023-11-19T02:32:56;12.20;99.90
47310;DHT22;33046;52.270;6.832;2023-11-19T02:35:03;12.20;99.90
47310;DHT22;33046;52.270;6.832;2023-11-19T02:37:13;12.20;99.90
47310;DHT22;33046;52.270;6.832;2023-11-19T02:39:20;12.30;99.90
47310;DHT22;33046;52.270;6.832;2023-11-19T02:41:27;12.30;99.90
47310;DHT22;33046;52.270;6.832;2023-11-19T02:43:34;12.30;99.90
47310;DHT22;33046;52.270;6.832;2023-11-19T02:45:43;12.30;99.90
47310;DHT22;33046;52.270;6.832;2023-11-19T02:47:51;12.30;99.90
47310;DHT22;33046;52.270;6.832;2023-11-19T02:49:58;12.30;99.90
47310;DHT22;33046;52.270;6.832;2023-11-19T02:52:06;12.30;99.90
47310;DHT22;33046;52.270;6.832;2023-11-19T02:54:13;12.30;99.90
47310;DHT22;33046;52.270;6.832;2023-11-19T02:56:20;12.30;99.90
47310;DHT22;33046;52.270;6.832;2023-11-19T02:58:27;12.30;99.90
47310;DHT22;33046;52.270;6.832;2023-11-19T03:00:34;12.40;99.90
47310;DHT22;33046;52.270;6.832;2023-11-19T03:02:42;12.40;99.90
47310;DHT22;33046;52.270;6.832;2023-11-19T03:04:49;12.40;99.90
47310;DHT22;33046;52.270;6.832;2023-11-19T03:06:56;12.40;99.90
47310;DHT22;33046;52.270;6.832;2023-11-19T03:09:03;12.40;99.90
47310;DHT22;33046;52.270;6.832;2023-11-19T03:11:10;12.40;99.90
47310;DHT22;33046;52.270;6.832;2023-11-19T03:13:17;12.40;99.90
47310;DHT22;33046;52.270;6.832;2023-11-19T03:15:24;12.40;99.90
47310;DHT22;33046;52.270;6.832;2023-11-19T03:17:32;12.50;99.90
47310;DHT22;33046;52.270;6.832;2023-11-19T03:19:40;12.50;99.90
47310;DHT22;33046;52.270;6.832;2023-11-19T03:21:47;12.50;99.90
47310;DHT22;33046;52.270;6.832;2023-11-19T03:23:54;12.50;99.90
47310;DHT22;33046;52.270;6.832;2023-11-19T03:26:00;12.40;99.90
47310;DHT22;33046;52.270;6.832;2023-11-19T03:28:07;12.50;99.90
47310;DHT22;33046;52.270;6.832;2023-11-19T03:30:14;12.50;99.90
47310;DHT22;33046;52.270;6.832;2023-11-19T03:32:21;12.40;99.90
47310;DHT22;33046;52.270;6.832;2023-11-19T03:34:28;12.50;99.90
47310;DHT22;33046;52.270;6.832;2023-11-19T03:36:36;12.50;99.90
47310;DHT22;33046;52.270;6.832;2023-11-19T03:38:43;12.50;99.90
47310;DHT22;33046;52.270;6.832;2023-11-19T03:40:50;12.50;99.90
47310;DHT22;33046;52.270;6.832;2023-11-19T03:42:57;12.50;99.90
47310;DHT22;33046;52.270;6.832;2023-11-19T03:45:05;12.50;99.90
47310;DHT22;33046;52.270;6.832;2023-11-19T03:47:12;12.50;99.90
47310;DHT22;33046;52.270;6.832;2023-11-19T03:49:18;12.50;99.90
47310;DHT22;33046;52.270;6.832;2023-11-19T03:51:25;12.50;99.90
47310;DHT22;33046;52.270;6.832;2023-11-19T03:53:33;12.50;99.90
47310;DHT22;33046;52.270;6.832;2023-11-19T03:55:40;12.50;99.90
47310;DHT22;33046;52.270;6.832;2023-11-19T03:57:47;12.50;99.90
47310;DHT22;33046;52.270;6.832;2023-11-19T03:59:54;12.50;99.90
47310;DHT22;33046;52.270;6.832;2023-11-19T04:02:01;12.50;99.90
47310;DHT22;33046;52.270;6.832;2023-11-19T04:04:08;12.50;99.90
47310;DHT22;33046;52.270;6.832;2023-11-19T04:06:14;12.50;99.90
47310;DHT22;33046;52.270;6.832;2023-11-19T04:08:21;12.50;99.90
47310;DHT22;33046;52.270;6.832;2023-11-19T04:10:30;12.50;99.90
47310;DHT22;33046;52.270;6.832;2023-11-19T04:12:36;12.50;99.90
47310;DHT22;33046;52.270;6.832;2023-11-19T04:14:43;12.50;99.90
47310;DHT22;33046;52.270;6.832;2023-11-19T04:16:51;12.50;99.90
47310;DHT22;33046;52.270;6.832;2023-11-19T04:18:58;12.50;99.90
47310;DHT22;33046;52.270;6.832;2023-11-19T04:21:06;12.50;99.90
47310;DHT22;33046;52.270;6.832;2023-11-19T04:23:13;12.50;99.90
47310;DHT22;33046;52.270;6.832;2023-11-19T04:25:20;12.50;99.90
47310;DHT22;33046;52.270;6.832;2023-11-19T04:27:28;12.50;99.90
47310;DHT22;33046;52.270;6.832;2023-11-19T04:29:35;12.50;99.90
47310;DHT22;33046;52.270;6.832;2023-11-19T04:31:41;12.50;99.90
47310;DHT22;33046;52.270;6.832;2023-11-19T04:33:48;12.50;99.90
47310;DHT22;33046;52.270;6.832;2023-11-19T04:35:55;12.50;99.90
47310;DHT22;33046;52.270;6.832;2023-11-19T04:38:02;12.40;99.90
47310;DHT22;33046;52.270;6.832;2023-11-19T04:40:09;12.50;99.90
47310;DHT22;33046;52.270;6.832;2023-11-19T04:42:16;12.40;99.90
47310;DHT22;33046;52.270;6.832;2023-11-19T04:44:25;12.40;99.90
47310;DHT22;33046;52.270;6.832;2023-11-19T04:46:31;12.40;99.90
47310;DHT22;33046;52.270;6.832;2023-11-19T04:48:38;12.40;99.90
47310;DHT22;33046;52.270;6.832;2023-11-19T04:50:48;12.40;99.90
47310;DHT22;33046;52.270;6.832;2023-11-19T04:52:55;12.40;99.90
47310;DHT22;33046;52.270;6.832;2023-11-19T04:55:02;12.40;99.90
47310;DHT22;33046;52.270;6.832;2023-11-19T04:57:09;12.40;99.90
47310;DHT22;33046;52.270;6.832;2023-11-19T04:59:16;12.40;99.90
47310;DHT22;33046;52.270;6.832;2023-11-19T05:01:24;12.30;99.90
47310;DHT22;33046;52.270;6.832;2023-11-19T05:03:31;12.30;99.90
47310;DHT22;33046;52.270;6.832;2023-11-19T05:05:38;12.30;99.90
47310;DHT22;33046;52.270;6.832;2023-11-19T05:07:45;12.30;99.90
47310;DHT22;33046;52.270;6.832;2023-11-19T05:09:52;12.30;99.90
47310;DHT22;33046;52.270;6.832;2023-11-19T05:11:59;12.30;99.90
47310;DHT22;33046;52.270;6.832;2023-11-19T05:14:05;12.30;99.90
47310;DHT22;33046;52.270;6.832;2023-11-19T05:16:12;12.30;99.90
47310;DHT22;33046;52.270;6.832;2023-11-19T05:18:20;12.30;99.90
47310;DHT22;33046;52.270;6.832;2023-11-19T05:20:27;12.30;99.90
47310;DHT22;33046;52.270;6.832;2023-11-19T05:22:34;12.30;99.90
47310;DHT22;33046;52.270;6.832;2023-11-19T05:24:41;12.30;99.90
47310;DHT22;33046;52.270;6.832;2023-11-19T05:26:48;12.30;99.90
47310;DHT22;33046;52.270;6.832;2023-11-19T05:28:55;12.30;99.90
47310;DHT22;33046;52.270;6.832;2023-11-19T05:31:02;12.30;99.90
47310;DHT22;33046;52.270;6.832;2023-11-19T05:33:08;12.30;99.90
47310;DHT22;33046;52.270;6.832;2023-11-19T05:35:17;12.30;99.90
47310;DHT22;33046;52.270;6.832;2023-11-19T05:37:24;12.30;99.90
47310;DHT22;33046;52.270;6.832;2023-11-19T05:39:30;12.30;99.90
47310;DHT22;33046;52.270;6.832;2023-11-19T05:41:37;12.30;99.90
47310;DHT22;33046;52.270;6.832;2023-11-19T05:43:44;12.30;99.90
47310;DHT22;33046;52.270;6.832;2023-11-19T05:45:51;12.30;99.90
47310;DHT22;33046;52.270;6.832;2023-11-19T05:47:58;12.30;99.90
47310;DHT22;33046;52.270;6.832;2023-11-19T05:50:05;12.30;99.90
47310;DHT22;33046;52.270;6.832;2023-11-19T05:52:13;12.30;99.90
47310;DHT22;33046;52.270;6.832;2023-11-19T05:54:20;12.30;99.90
47310;DHT22;33046;52.270;6.832;2023-11-19T05:56:27;12.30;99.90
47310;DHT22;33046;52.270;6.832;2023-11-19T05:58:34;12.30;99.90
47310;DHT22;33046;52.270;6.832;2023-11-19T06:00:41;12.30;99.90
47310;DHT22;33046;52.270;6.832;2023-11-19T06:02:48;12.30;99.90
47310;DHT22;33046;52.270;6.832;2023-11-19T06:04:55;12.30;99.90
47310;DHT22;33046;52.270;6.832;2023-11-19T06:07:02;12.30;99.90
47310;DHT22;33046;52.270;6.832;2023-11-19T06:09:10;12.30;99.90
47310;DHT22;33046;52.270;6.832;2023-11-19T06:11:18;12.30;99.90
47310;DHT22;33046;52.270;6.832;2023-11-19T06:13:25;12.30;99.90
47310;DHT22;33046;52.270;6.832;2023-11-19T06:15:33;12.30;99.90
47310;DHT22;33046;52.270;6.832;2023-11-19T06:17:40;12.30;99.90
47310;DHT22;33046;52.270;6.832;2023-11-19T06:19:47;12.30;99.90
47310;DHT22;33046;52.270;6.832;2023-11-19T06:21:53;12.30;99.90
47310;DHT22;33046;52.270;6.832;2023-11-19T06:24:00;12.30;99.90
47310;DHT22;33046;52.270;6.832;2023-11-19T06:26:09;12.30;99.90
47310;DHT22;33046;52.270;6.832;2023-11-19T06:28:15;12.30;99.90
47310;DHT22;33046;52.270;6.832;2023-11-19T06:30:22;12.30;99.90
47310;DHT22;33046;52.270;6.832;2023-11-19T06:32:29;12.30;99.90
47310;DHT22;33046;52.270;6.832;2023-11-19T06:34:36;12.30;99.90
47310;DHT22;33046;52.270;6.832;2023-11-19T06:36:43;12.30;99.90
47310;DHT22;33046;52.270;6.832;2023-11-19T06:38:50;12.30;99.90
47310;DHT22;33046;52.270;6.832;2023-11-19T06:40:56;12.30;99.90
47310;DHT22;33046;52.270;6.832;2023-11-19T06:43:05;12.30;99.90
47310;DHT22;33046;52.270;6.832;2023-11-19T06:45:12;12.30;99.90
47310;DHT22;33046;52.270;6.832;2023-11-19T06:47:19;12.30;99.90
47310;DHT22;33046;52.270;6.832;2023-11-19T06:49:25;12.30;99.90
47310;DHT22;33046;52.270;6.832;2023-11-19T06:51:33;12.30;99.90
47310;DHT22;33046;52.270;6.832;2023-11-19T06:53:39;12.30;99.90
47310;DHT22;33046;52.270;6.832;2023-11-19T06:55:46;12.30;99.90
47310;DHT22;33046;52.270;6.832;2023-11-19T06:57:53;12.30;99.90
47310;DHT22;33046;52.270;6.832;2023-11-19T07:00:02;12.30;99.90
47310;DHT22;33046;52.270;6.832;2023-11-19T07:02:09;12.30;99.90
47310;DHT22;33046;52.270;6.832;2023-11-19T07:04:16;12.30;99.90
47310;DHT22;33046;52.270;6.832;2023-11-19T07:06:22;12.30;99.90
47310;DHT22;33046;52.270;6.832;2023-11-19T07:08:41;12.30;99.90
47310;DHT22;33046;52.270;6.832;2023-11-19T07:10:48;12.30;99.90
47310;DHT22;33046;52.270;6.832;2023-11-19T07:12:55;12.30;99.90
47310;DHT22;33046;52.270;6.832;2023-11-19T07:15:05;12.30;99.90
47310;DHT22;33046;52.270;6.832;2023-11-19T07:17:12;12.30;99.90
47310;DHT22;33046;52.270;6.832;2023-11-19T07:19:19;12.30;99.90
47310;DHT22;33046;52.270;6.832;2023-11-19T07:21:25;12.30;99.90
47310;DHT22;33046;52.270;6.832;2023-11-19T07:23:32;12.30;99.90
47310;DHT22;33046;52.270;6.832;2023-11-19T07:25:39;12.30;99.90
47310;DHT22;33046;52.270;6.832;2023-11-19T07:27:46;12.30;99.90
47310;DHT22;33046;52.270;6.832;2023-11-19T07:29:53;12.30;99.90
47310;DHT22;33046;52.270;6.832;2023-11-19T07:32:01;12.30;99.90
47310;DHT22;33046;52.270;6.832;2023-11-19T07:34:08;12.30;99.90
47310;DHT22;33046;52.270;6.832;2023-11-19T07:36:15;12.30;99.90
47310;DHT22;33046;52.270;6.832;2023-11-19T07:38:22;12.30;99.90
47310;DHT22;33046;52.270;6.832;2023-11-19T07:40:28;12.30;99.90
47310;DHT22;33046;52.270;6.832;2023-11-19T07:42:35;12.30;99.90
47310;DHT22;33046;52.270;6.832;2023-11-19T07:44:43;12.30;99.90
47310;DHT22;33046;52.270;6.832;2023-11-19T07:46:50;12.30;99.90
47310;DHT22;33046;52.270;6.832;2023-11-19T07:48:58;12.30;99.90
47310;DHT22;33046;52.270;6.832;2023-11-19T07:51:05;12.40;99.90
47310;DHT22;33046;52.270;6.832;2023-11-19T07:53:12;12.40;99.90
47310;DHT22;33046;52.270;6.832;2023-11-19T07:55:19;12.40;99.90
47310;DHT22;33046;52.270;6.832;2023-11-19T07:57:26;12.40;99.90
47310;DHT22;33046;52.270;6.832;2023-11-19T07:59:33;12.40;99.90
47310;DHT22;33046;52.270;6.832;2023-11-19T08:01:40;12.40;99.90
47310;DHT22;33046;52.270;6.832;2023-11-19T08:03:46;12.40;99.90
47310;DHT22;33046;52.270;6.832;2023-11-19T08:05:58;12.40;99.90
47310;DHT22;33046;52.270;6.832;2023-11-19T08:08:05;12.40;99.90
47310;DHT22;33046;52.270;6.832;2023-11-19T08:10:11;12.40;99.90
47310;DHT22;33046;52.270;6.832;2023-11-19T08:12:18;12.40;99.90
47310;DHT22;33046;52.270;6.832;2023-11-19T08:14:25;12.40;99.90
47310;DHT22;33046;52.270;6.832;2023-11-19T08:16:32;12.50;99.90
47310;DHT22;33046;52.270;6.832;2023-11-19T08:18:41;12.40;99.90
47310;DHT22;33046;52.270;6.832;2023-11-19T08:20:47;12.50;99.90
47310;DHT22;33046;52.270;6.832;2023-11-19T08:22:56;12.50;99.90
47310;DHT22;33046;52.270;6.832;2023-11-19T08:25:03;12.50;99.90
47310;DHT22;33046;52.270;6.832;2023-11-19T08:27:10;12.50;99.90
47310;DHT22;33046;52.270;6.832;2023-11-19T08:29:17;12.50;99.90
47310;DHT22;33046;52.270;6.832;2023-11-19T08:31:24;12.60;99.90
47310;DHT22;33046;52.270;6.832;2023-11-19T08:33:31;12.60;99.90
47310;DHT22;33046;52.270;6.832;2023-11-19T08:35:38;12.60;99.90
47310;DHT22;33046;52.270;6.832;2023-11-19T08:37:45;12.60;99.90
47310;DHT22;33046;52.270;6.832;2023-11-19T08:39:53;12.60;99.90
47310;DHT22;33046;52.270;6.832;2023-11-19T08:42:00;12.70;99.90
47310;DHT22;33046;52.270;6.832;2023-11-19T08:44:07;12.70;99.90
47310;DHT22;33046;52.270;6.832;2023-11-19T08:46:14;12.70;99.90
47310;DHT22;33046;52.270;6.832;2023-11-19T08:48:20;12.80;99.90
47310;DHT22;33046;52.270;6.832;2023-11-19T08:50:27;12.80;99.90
47310;DHT22;33046;52.270;6.832;2023-11-19T08:52:34;12.80;99.90
47310;DHT22;33046;52.270;6.832;2023-11-19T08:54:42;12.90;99.90
47310;DHT22;33046;52.270;6.832;2023-11-19T08:56:50;12.90;99.90
47310;DHT22;33046;52.270;6.832;2023-11-19T08:58:57;12.90;99.90
47310;DHT22;33046;52.270;6.832;2023-11-19T09:01:04;12.90;99.90
47310;DHT22;33046;52.270;6.832;2023-11-19T09:03:11;12.90;99.90
47310;DHT22;33046;52.270;6.832;2023-11-19T09:05:18;13.00;99.90
47310;DHT22;33046;52.270;6.832;2023-11-19T09:07:25;13.00;99.90
47310;DHT22;33046;52.270;6.832;2023-11-19T09:09:32;13.00;99.90
47310;DHT22;33046;52.270;6.832;2023-11-19T09:11:38;13.00;99.90
47310;DHT22;33046;52.270;6.832;2023-11-19T09:13:47;13.10;99.90
47310;DHT22;33046;52.270;6.832;2023-11-19T09:15:53;13.10;99.90
47310;DHT22;33046;52.270;6.832;2023-11-19T09:18:00;13.10;99.90
47310;DHT22;33046;52.270;6.832;2023-11-19T09:20:08;13.20;99.90
47310;DHT22;33046;52.270;6.832;2023-11-19T09:22:15;13.20;99.90
47310;DHT22;33046;52.270;6.832;2023-11-19T09:24:22;13.20;99.90
47310;DHT22;33046;52.270;6.832;2023-11-19T09:26:29;13.20;99.90
47310;DHT22;33046;52.270;6.832;2023-11-19T09:28:35;13.20;99.90
47310;DHT22;33046;52.270;6.832;2023-11-19T09:30:44;13.20;99.90
47310;DHT22;33046;52.270;6.832;2023-11-19T09:32:51;13.20;99.90
47310;DHT22;33046;52.270;6.832;2023-11-19T09:34:58;13.20;99.90
47310;DHT22;33046;52.270;6.832;2023-11-19T09:37:05;13.30;99.90
47310;DHT22;33046;52.270;6.832;2023-11-19T09:39:27;13.30;99.90
47310;DHT22;33046;52.270;6.832;2023-11-19T09:41:35;13.30;99.90
47310;DHT22;33046;52.270;6.832;2023-11-19T09:43:42;13.30;99.90
47310;DHT22;33046;52.270;6.832;2023-11-19T09:45:51;13.30;99.90
47310;DHT22;33046;52.270;6.832;2023-11-19T09:48:00;13.30;99.90
47310;DHT22;33046;52.270;6.832;2023-11-19T09:50:07;13.30;99.90
47310;DHT22;33046;52.270;6.832;2023-11-19T09:52:15;13.30;99.90
47310;DHT22;33046;52.270;6.832;2023-11-19T09:54:22;13.30;99.90
47310;DHT22;33046;52.270;6.832;2023-11-19T09:56:29;13.30;99.90
47310;DHT22;33046;52.270;6.832;2023-11-19T09:58:36;13.30;99.90
47310;DHT22;33046;52.270;6.832;2023-11-19T10:00:43;13.30;99.90
47310;DHT22;33046;52.270;6.832;2023-11-19T10:02:51;13.30;99.90
47310;DHT22;33046;52.270;6.832;2023-11-19T10:04:58;13.30;99.90
47310;DHT22;33046;52.270;6.832;2023-11-19T10:07:05;13.30;99.90
47310;DHT22;33046;52.270;6.832;2023-11-19T10:09:12;13.30;99.90
47310;DHT22;33046;52.270;6.832;2023-11-19T10:11:19;13.30;99.90
47310;DHT22;33046;52.270;6.832;2023-11-19T10:13:27;13.40;99.90
47310;DHT22;33046;52.270;6.832;2023-11-19T10:15:37;13.30;99.90
47310;DHT22;33046;52.270;6.832;2023-11-19T10:17:44;13.30;99.90
47310;DHT22;33046;52.270;6.832;2023-11-19T10:19:52;13.30;99.90
47310;DHT22;33046;52.270;6.832;2023-11-19T10:22:03;13.30;99.90
47310;DHT22;33046;52.270;6.832;2023-11-19T10:24:10;13.30;99.90
47310;DHT22;33046;52.270;6.832;2023-11-19T10:26:18;13.40;99.90
47310;DHT22;33046;52.270;6.832;2023-11-19T10:28:25;13.40;99.90
47310;DHT22;33046;52.270;6.832;2023-11-19T10:30:31;13.40;99.90
47310;DHT22;33046;52.270;6.832;2023-11-19T10:32:38;13.40;99.90
47310;DHT22;33046;52.270;6.832;2023-11-19T10:34:45;13.40;99.90
47310;DHT22;33046;52.270;6.832;2023-11-19T10:36:53;13.50;99.90
47310;DHT22;33046;52.270;6.832;2023-11-19T10:39:00;13.50;99.90
47310;DHT22;33046;52.270;6.832;2023-11-19T10:41:07;13.50;99.90
47310;DHT22;33046;52.270;6.832;2023-11-19T10:43:14;13.50;99.90
47310;DHT22;33046;52.270;6.832;2023-11-19T10:45:24;13.60;99.90
47310;DHT22;33046;52.270;6.832;2023-11-19T10:47:31;13.50;99.90
47310;DHT22;33046;52.270;6.832;2023-11-19T10:49:42;13.60;99.90
47310;DHT22;33046;52.270;6.832;2023-11-19T10:51:49;13.60;99.90
47310;DHT22;33046;52.270;6.832;2023-11-19T10:54:02;13.60;99.90
47310;DHT22;33046;52.270;6.832;2023-11-19T10:56:10;13.70;99.90
47310;DHT22;33046;52.270;6.832;2023-11-19T10:58:18;13.70;99.90
47310;DHT22;33046;52.270;6.832;2023-11-19T11:00:25;13.70;99.90
47310;DHT22;33046;52.270;6.832;2023-11-19T11:02:35;13.80;99.90
47310;DHT22;33046;52.270;6.832;2023-11-19T11:04:47;13.80;99.90
47310;DHT22;33046;52.270;6.832;2023-11-19T11:06:57;13.80;99.90
47310;DHT22;33046;52.270;6.832;2023-11-19T11:09:07;13.90;99.90
47310;DHT22;33046;52.270;6.832;2023-11-19T11:11:16;13.90;99.90
47310;DHT22;33046;52.270;6.832;2023-11-19T11:13:24;13.90;99.90
47310;DHT22;33046;52.270;6.832;2023-11-19T11:15:31;13.90;99.90
47310;DHT22;33046;52.270;6.832;2023-11-19T11:17:39;13.90;99.90
47310;DHT22;33046;52.270;6.832;2023-11-19T11:19:47;14.00;99.90
47310;DHT22;33046;52.270;6.832;2023-11-19T11:21:55;14.00;99.90
47310;DHT22;33046;52.270;6.832;2023-11-19T11:24:19;14.00;99.90
47310;DHT22;33046;52.270;6.832;2023-11-19T11:26:40;14.00;99.90
47310;DHT22;33046;52.270;6.832;2023-11-19T11:28:55;13.90;99.90
47310;DHT22;33046;52.270;6.832;2023-11-19T11:31:10;14.00;99.90
47310;DHT22;33046;52.270;6.832;2023-11-19T11:33:30;14.00;99.90
47310;DHT22;33046;52.270;6.832;2023-11-19T11:35:46;13.90;99.90
47310;DHT22;33046;52.270;6.832;2023-11-19T11:38:00;13.90;99.90
47310;DHT22;33046;52.270;6.832;2023-11-19T11:40:14;14.00;99.90
47310;DHT22;33046;52.270;6.832;2023-11-19T11:42:34;14.00;99.90
47310;DHT22;33046;52.270;6.832;2023-11-19T11:45:00;14.00;99.90
47310;DHT22;33046;52.270;6.832;2023-11-19T11:47:08;13.90;99.90
47310;DHT22;33046;52.270;6.832;2023-11-19T11:49:15;14.00;99.90
47310;DHT22;33046;52.270;6.832;2023-11-19T11:52:03;13.90;99.90
47310;DHT22;33046;52.270;6.832;2023-11-19T11:54:10;14.00;99.90
47310;DHT22;33046;52.270;6.832;2023-11-19T11:56:19;14.00;99.90
47310;DHT22;33046;52.270;6.832;2023-11-19T11:58:30;14.00;99.90
47310;DHT22;33046;52.270;6.832;2023-11-19T12:00:39;14.00;99.90
47310;DHT22;33046;52.270;6.832;2023-11-19T12:02:46;13.90;99.90
47310;DHT22;33046;52.270;6.832;2023-11-19T12:04:53;14.00;99.90
47310;DHT22;33046;52.270;6.832;2023-11-19T12:07:04;14.00;99.90
47310;DHT22;33046;52.270;6.832;2023-11-19T12:09:11;14.00;99.90
47310;DHT22;33046;52.270;6.832;2023-11-19T12:11:20;14.00;99.90
47310;DHT22;33046;52.270;6.832;2023-11-19T12:13:46;13.90;99.90
47310;DHT22;33046;52.270;6.832;2023-11-19T12:16:09;14.00;99.90
47310;DHT22;33046;52.270;6.832;2023-11-19T12:18:19;13.90;99.90
47310;DHT22;33046;52.270;6.832;2023-11-19T12:20:26;14.00;99.90
47310;DHT22;33046;52.270;6.832;2023-11-19T12:22:37;14.00;99.90
47310;DHT22;33046;52.270;6.832;2023-11-19T12:24:44;14.00;99.90
47310;DHT22;33046;52.270;6.832;2023-11-19T12:26:52;14.10;99.90
47310;DHT22;33046;52.270;6.832;2023-11-19T12:29:00;14.10;99.90
47310;DHT22;33046;52.270;6.832;2023-11-19T12:31:07;14.10;99.90
47310;DHT22;33046;52.270;6.832;2023-11-19T12:33:15;14.20;99.90
47310;DHT22;33046;52.270;6.832;2023-11-19T12:35:22;14.20;99.90
47310;DHT22;33046;52.270;6.832;2023-11-19T12:37:29;14.20;99.90
47310;DHT22;33046;52.270;6.832;2023-11-19T12:39:36;14.20;99.90
47310;DHT22;33046;52.270;6.832;2023-11-19T12:41:52;14.30;99.90
47310;DHT22;33046;52.270;6.832;2023-11-19T12:44:09;14.20;99.90
47310;DHT22;33046;52.270;6.832;2023-11-19T12:46:20;14.30;99.90
47310;DHT22;33046;52.270;6.832;2023-11-19T12:48:27;14.30;99.90
47310;DHT22;33046;52.270;6.832;2023-11-19T12:50:52;14.30;99.90
47310;DHT22;33046;52.270;6.832;2023-11-19T12:52:59;14.30;99.90
47310;DHT22;33046;52.270;6.832;2023-11-19T12:55:24;14.30;99.90
47310;DHT22;33046;52.270;6.832;2023-11-19T12:57:39;14.30;99.90
47310;DHT22;33046;52.270;6.832;2023-11-19T12:59:56;14.30;99.90
47310;DHT22;33046;52.270;6.832;2023-11-19T13:02:03;14.30;99.90
47310;DHT22;33046;52.270;6.832;2023-11-19T13:04:16;14.30;99.90
47310;DHT22;33046;52.270;6.832;2023-11-19T13:06:24;14.30;99.90
47310;DHT22;33046;52.270;6.832;2023-11-19T13:08:36;14.30;99.90
47310;DHT22;33046;52.270;6.832;2023-11-19T13:10:51;14.30;99.90
47310;DHT22;33046;52.270;6.832;2023-11-19T13:13:04;14.30;99.90
47310;DHT22;33046;52.270;6.832;2023-11-19T13:15:22;14.30;99.90
47310;DHT22;33046;52.270;6.832;2023-11-19T13:17:29;14.30;99.90
47310;DHT22;33046;52.270;6.832;2023-11-19T13:19:36;14.30;99.90
47310;DHT22;33046;52.270;6.832;2023-11-19T13:21:42;14.30;99.90
47310;DHT22;33046;52.270;6.832;2023-11-19T13:23:49;14.30;99.90
47310;DHT22;33046;52.270;6.832;2023-11-19T13:25:56;14.30;99.90
47310;DHT22;33046;52.270;6.832;2023-11-19T13:28:04;14.30;99.90